Pearisburg, Virginia
Current Conditions -  °F | °C
As of 5:55 AM on Friday 28 Nov 2014 (Local Time) from KPSK Reporting Station
Scattered Clouds Scattered Clouds  
Wind Chill: 18°   Ceiling: Unl
Heat Index: 27°   Visibility: 10mi
Dew Point: 15°   Wind: 9mph
Humidity: 60%   Direction: 300°WNW
Pressure: 30.26"   Gusts: NA
Location:  37.33°N, 80.74°W
Report Text: KPSK 281055Z AUTO 30008KT 10SM SCT029 SCT037 M03/M10 A3026 RMK AO2 T10291096
Loading
Personal Weather Stations






























Interactive Weather Map New forecast layout! Learn more

10-Day Weather Forecast

Advertisements
Track Severe Weather on mobile